Dallas, Texas
Current Conditions -  °F | °C
As of 1:53 PM on Sunday 25 Jan 2015 (Local Time) from KDAL Reporting Station
Few Clouds Few Clouds  
Wind Chill: 18°   Ceiling: Unl
Heat Index: 18°   Visibility: 10mi
Dew Point: -3°   Wind: 23mph
Humidity: 24%   Direction: 310°NW
Pressure: 30.02"   Gusts: 31mph
Location:  32.78°N, 96.79°W
Report Text: KDAL 251953Z 31020G27KT 10SM FEW250 18/M03 A3002 RMK AO2 PK WND 31030/1938 SLP162 T01781033
Loading
Personal Weather Stations






























Interactive Weather Map New forecast layout! Learn more

10-Day Weather Forecast

Advertisements
Track Severe Weather on mobile